Terminal Aerodrome Forecast
Issued by NWS Knoxville/Tri Cities, TN

Home | Current Version | Previous Version | Text Only | Print | Product List | Glossary On
Versions: 1 2 3 4 5 6 7 8 9 10 11 12 13
000
FTUS44 KMRX 192142 AAA
TAFTYS
TAF AMD
KTYS 192142Z 1922/2018 10007KT P6SM -RA BKN100
     FM192300 04004KT P6SM BKN100
     FM200200 05005KT P6SM SCT250=

USA.gov is the U.S. government's official web portal to all federal, state and local government web resources and services.